EDDGEDLW

Guest
Details From EDDG - Muenster Osnabrueck
To EDLW - Dortmund-Wickede
Flight Number -
Tags generated
Created
Modified
Stats Distance 37 nm / 69 km
Max Altitude 2,400 ft / 732 m
Waypoints 3
Social Downloads 1
Likes 0
Share VATSIM

Download

Looking for another format? Having issues loading an existing format? Contact us
Advertisement - Login to hide

Notes

Basic altitude profile: - Ascent Rate: 2500ft/min - Ascent Speed: 250kts - Cruise Altitude: 35000ft - Cruise Speed: 420kts - Descent Rate: 1500ft/min - Descent Speed: 250kts Options: - Use NATs: yes - Use PACOTS: yes - Use low airways: yes - Use high airways: yes

Route

EDDG DOM EDLW

ID Type Via Altitude Latitude Longitude Leg Dist Tot Dist Heading (true) Name
O EDDG APT - 0 ft / 0 m 52.13458˚ 7.68467˚ - 0 nm - Muenster Osnabrueck
DOM VOR - 2,400 ft / 732 m 51.70953˚ 7.58713˚ 25 nm 25 nm 188° / 188° -
O EDLW APT - 0 ft / 0 m 51.51911˚ 7.61445˚ 11 nm 37 nm 175° / 175° Dortmund-Wickede

Altitude Profile

Advertisement - Login to hide

EDDG

Details ICAO EDDG (FMO)
Name Muenster Osnabrueck
Region Germany - Civil
Timezone Europe/Berlin (UTC+1.0)
Stats Elevation 159 ft / 48 m (AMSL)
Location 52.134580° 7.684669°
Runways 1
Magnetic Variation 2.069° E

METAR

EDDG 170220Z 26006KT 9999 FEW020 SCT035 01/00 Q1017 NOSIG

Decode

TAF

TAF TAF EDDG 162300Z 1700/1724 26007KT 9999 SCT030 PROB30 TEMPO 1704/1709 BKN008 BECMG 1715/1718 20007KT BECMG 1722/1724 4000 -RASN BKN011

Decode

Departure Runways

ID Width Length Bearing (true) Bearing (mag) Surface Threshold Offset Overrun Length
07 148 ft / 45 m 7,303 ft / 2,226 m 70.93° 68.86° Asphalt 151 ft / 46 m 0 ft / 0 m
25 148 ft / 45 m 7,303 ft / 2,226 m 250.96° 248.89° Asphalt 292 ft / 89 m 0 ft / 0 m

EDLW

Details ICAO EDLW (DTM)
Name Dortmund-Wickede
Region Germany - Civil
Timezone Europe/Berlin (UTC+1.0)
Stats Elevation 425 ft / 130 m (AMSL)
Location 51.519107° 7.614447°
Runways 1
Magnetic Variation 2.059° E

METAR

EDLW 170220Z AUTO 26006KT 230V290 9999 // OVC007/// 03/01 Q1017

Decode

TAF

TAF EDLW 162150Z 1621/1718 CNL= TAF AMD EPWA 162158Z 1621/1718 24006KT 7000 BKN020 TEMPO 1622/1709 4000 BR BKN006 BKN010 PROB40 TEMPO 1622/1709 2000 -SN -SNRA BR BKN003 BECMG 1716/1718 2000 BR

Decode

Destination Runways

ID Width Length Bearing (true) Bearing (mag) Surface Threshold Offset Overrun Length
06 148 ft / 45 m 6,546 ft / 1,995 m 60.50° 58.44° Asphalt 984 ft / 300 m 197 ft / 60 m
24 148 ft / 45 m 6,546 ft / 1,995 m 240.52° 238.46° Asphalt 984 ft / 300 m 197 ft / 60 m

Approach Navaids

Runway Type Ident Frequency Range Bearing (true) Bearing (mag) Slope Elevation
06 Localiser IDWE 109.15 MHz 18 nm / 33 km 60.52° 58.47° - 425 ft / 130 m (AMSL)
06 Glidescope IDWE 109.15 MHz 10 nm / 19 km 60.51° 58.45° 3.00° 425 ft / 130 m (AMSL)
24 Localiser IDWW 110.30 MHz 18 nm / 33 km 240.49° 238.43° - 425 ft / 130 m (AMSL)
24 Glidescope IDWW 110.30 MHz 10 nm / 19 km 240.51° 238.45° 3.00° 425 ft / 130 m (AMSL)

Popular Alternatives